createdAt,value
2022-08-05T00:02:58.074Z,17.80
2022-08-05T00:08:01.465Z,17.69
2022-08-05T00:13:03.282Z,17.86
2022-08-05T00:18:04.963Z,17.84
2022-08-05T00:23:12.952Z,17.76
2022-08-05T00:28:15.793Z,17.73
2022-08-05T00:34:53.546Z,17.73
2022-08-05T00:38:44.423Z,17.87
2022-08-05T00:43:49.716Z,17.83
2022-08-05T00:48:52.273Z,17.91
2022-08-05T00:54:02.832Z,17.75
2022-08-05T00:59:07.011Z,17.60
2022-08-05T01:04:13.557Z,17.49
2022-08-05T01:09:26.229Z,17.68
2022-08-05T01:14:35.407Z,17.44
2022-08-05T01:20:03.617Z,17.31
2022-08-05T01:25:42.583Z,17.27
2022-08-05T01:31:22.994Z,17.15
2022-08-05T01:36:29.409Z,17.04
2022-08-05T01:41:35.731Z,17.07
2022-08-05T01:46:46.422Z,17.00
2022-08-05T01:51:51.786Z,16.99
2022-08-05T01:58:18.741Z,17.10
2022-08-05T02:02:25.801Z,17.06
2022-08-05T02:07:32.165Z,16.97
2022-08-05T02:12:58.333Z,17.01
2022-08-05T02:18:32.992Z,16.98
2022-08-05T02:23:36.227Z,16.94
2022-08-05T02:28:46.058Z,16.95
2022-08-05T02:33:58.409Z,16.93
2022-08-05T02:39:02.953Z,17.03
2022-08-05T02:44:11.953Z,17.12
2022-08-05T02:49:16.029Z,17.02
2022-08-05T02:54:35.081Z,16.99
2022-08-05T02:59:47.848Z,16.97
2022-08-05T03:04:55.097Z,16.92
2022-08-05T03:09:57.429Z,16.97
2022-08-05T03:14:59.213Z,17.02
2022-08-05T03:20:00.915Z,17.01
2022-08-05T03:25:31.905Z,17.01
2022-08-05T03:30:33.339Z,16.91
2022-08-05T03:35:40.535Z,16.98
2022-08-05T03:40:45.121Z,16.92
2022-08-05T03:45:57.484Z,17.04
2022-08-05T03:52:37.589Z,17.03
2022-08-05T03:57:16.574Z,16.95
2022-08-05T04:02:38.438Z,16.98
2022-08-05T04:07:57.362Z,16.91
2022-08-05T04:13:03.440Z,17.18
2022-08-05T04:18:09.781Z,16.96
2022-08-05T04:23:16.018Z,17.04
2022-08-05T04:28:19.272Z,17.12
2022-08-05T04:34:17.376Z,17.06
2022-08-05T04:38:45.199Z,16.96
2022-08-05T04:43:52.994Z,17.07
2022-08-05T04:48:54.576Z,17.11
2022-08-05T04:53:56.140Z,17.12
2022-08-05T04:58:57.867Z,17.24
2022-08-05T05:04:01.473Z,17.24
2022-08-05T05:09:05.505Z,17.13
2022-08-05T05:14:15.239Z,17.19
2022-08-05T05:19:19.372Z,17.35
2022-08-05T05:24:57.794Z,17.40
2022-08-05T05:30:04.918Z,17.32
2022-08-05T05:35:07.053Z,17.28
2022-08-05T05:40:10.807Z,17.21
2022-08-05T05:45:14.659Z,17.21
2022-08-05T05:50:19.628Z,17.40
2022-08-05T05:55:51.589Z,17.12
2022-08-05T06:01:12.357Z,17.32
2022-08-05T06:06:15.106Z,17.24
2022-08-05T06:11:16.732Z,17.38
2022-08-05T06:16:29.281Z,17.37
2022-08-05T06:21:37.620Z,17.17
2022-08-05T06:28:09.240Z,17.36
2022-08-05T06:32:32.305Z,17.51
2022-08-05T06:37:56.203Z,17.74
2022-08-05T06:42:58.669Z,18.00
2022-08-05T06:48:36.023Z,17.97
2022-08-05T06:53:28.070Z,17.76
2022-08-05T06:58:36.306Z,17.86
2022-08-05T07:03:53.340Z,17.98
2022-08-05T07:08:55.248Z,18.05
2022-08-05T07:14:20.496Z,18.08
2022-08-05T07:24:53.626Z,17.90
2022-08-05T07:36:30.249Z,18.09
2022-08-05T07:42:13.059Z,18.26
2022-08-05T07:46:53.555Z,18.50
2022-08-05T07:51:55.496Z,18.58
2022-08-05T07:57:02.072Z,18.59
2022-08-05T08:02:17.887Z,18.38
2022-08-05T08:07:22.069Z,18.55
2022-08-05T08:12:33.627Z,18.85
2022-08-05T08:17:46.306Z,18.77
2022-08-05T08:22:56.836Z,18.79
2022-08-05T08:27:59.613Z,19.23
2022-08-05T08:33:08.239Z,18.89
2022-08-05T08:38:11.650Z,18.84
2022-08-05T08:45:18.026Z,18.85
2022-08-05T08:49:07.886Z,18.92
2022-08-05T08:54:10.502Z,18.87
2022-08-05T08:59:19.330Z,18.91
2022-08-05T09:04:21.805Z,18.99
2022-08-05T09:09:34.598Z,19.20
2022-08-05T09:14:56.488Z,18.91
2022-08-05T09:20:01.541Z,19.84
2022-08-05T09:25:13.818Z,20.42
2022-08-05T09:30:25.863Z,20.55
2022-08-05T09:35:28.052Z,20.44
2022-08-05T09:40:36.430Z,20.52
2022-08-05T09:46:06.177Z,20.22
2022-08-05T09:51:15.141Z,20.91
2022-08-05T09:56:28.611Z,21.48
2022-08-05T10:01:33.578Z,20.47
2022-08-05T10:06:35.223Z,20.36
2022-08-05T10:11:36.782Z,19.87
2022-08-05T10:16:52.479Z,19.85
2022-08-05T10:21:54.863Z,20.15
2022-08-05T10:27:00.511Z,20.55
2022-08-05T10:32:51.846Z,21.02
2022-08-05T10:37:44.686Z,21.51
2022-08-05T10:43:40.905Z,22.01
2022-08-05T10:48:56.999Z,22.91
2022-08-05T10:54:05.868Z,22.42
2022-08-05T11:00:02.190Z,21.41
2022-08-05T11:04:56.158Z,21.40
2022-08-05T11:10:04.120Z,22.35
2022-08-05T11:16:00.347Z,21.80
2022-08-05T11:20:52.247Z,22.05
2022-08-05T11:26:08.850Z,21.92
2022-08-05T11:32:10.490Z,21.55
2022-08-05T11:38:30.741Z,21.96
2022-08-05T11:43:06.637Z,22.11
2022-08-05T11:48:11.589Z,22.39
2022-08-05T11:53:13.416Z,21.77
2022-08-05T11:58:41.146Z,23.25
2022-08-05T12:03:57.085Z,23.27
2022-08-05T12:15:58.758Z,23.73
2022-08-05T12:21:18.347Z,23.23
2022-08-05T12:26:20.541Z,24.56
2022-08-05T12:31:33.629Z,23.27
2022-08-05T12:36:48.087Z,23.11
2022-08-05T12:41:49.770Z,22.58
2022-08-05T12:46:59.683Z,22.21
2022-08-05T12:52:14.113Z,22.00
2022-08-05T12:57:23.291Z,22.03
2022-08-05T13:03:01.081Z,21.89
2022-08-05T13:08:05.000Z,22.07
2022-08-05T13:13:10.359Z,21.94
2022-08-05T13:26:30.656Z,22.12
2022-08-05T13:31:34.152Z,22.77
2022-08-05T13:36:54.420Z,22.52
2022-08-05T13:41:55.979Z,23.23
2022-08-05T13:47:04.632Z,23.81
2022-08-05T13:52:29.066Z,23.76
2022-08-05T13:57:50.546Z,22.45
2022-08-05T14:03:17.747Z,21.90
2022-08-05T14:08:20.882Z,21.36
2022-08-05T14:20:30.878Z,21.37
2022-08-05T14:25:32.587Z,21.15
2022-08-05T14:30:34.153Z,21.05
2022-08-05T14:35:50.220Z,20.71
2022-08-05T14:40:52.553Z,20.73
2022-08-05T14:45:54.156Z,20.70
2022-08-05T14:50:55.726Z,20.67
2022-08-05T14:55:57.575Z,20.86
2022-08-05T15:01:00.399Z,20.42
2022-08-05T15:06:08.450Z,20.21
2022-08-05T15:11:17.597Z,20.24
2022-08-05T15:23:13.404Z,20.01
2022-08-05T15:29:22.133Z,20.34
2022-08-05T15:34:33.177Z,20.92
2022-08-05T15:41:01.108Z,21.05
2022-08-05T15:44:57.103Z,20.28
2022-08-05T15:49:59.421Z,20.09
2022-08-05T15:55:01.562Z,20.15
2022-08-05T16:00:05.882Z,20.40
2022-08-05T16:05:09.673Z,20.77
2022-08-05T16:10:12.865Z,21.04
2022-08-05T16:15:18.798Z,20.39
2022-08-05T16:20:20.563Z,20.22
2022-08-05T16:25:22.153Z,20.78
2022-08-05T16:30:36.176Z,20.87
2022-08-05T16:35:42.443Z,20.49
2022-08-05T16:40:52.043Z,20.27
2022-08-05T16:46:05.100Z,20.07
2022-08-05T16:51:10.739Z,19.91
2022-08-05T16:56:12.642Z,19.91
2022-08-05T17:01:14.311Z,19.97
2022-08-05T17:06:16.570Z,20.02
2022-08-05T17:11:18.715Z,19.83
2022-08-05T17:24:05.142Z,19.44
2022-08-05T17:28:41.317Z,19.59
2022-08-05T17:33:48.198Z,19.58
2022-08-05T17:38:50.294Z,19.60
2022-08-05T17:43:53.405Z,19.24
2022-08-05T17:48:56.016Z,18.90
2022-08-05T17:53:59.797Z,18.76
2022-08-05T17:59:01.766Z,18.89
2022-08-05T18:04:05.871Z,18.85
2022-08-05T18:09:14.546Z,18.55
2022-08-05T18:14:20.417Z,18.57
2022-08-05T18:19:26.019Z,18.71
2022-08-05T18:24:28.024Z,18.47
2022-08-05T18:29:40.389Z,18.20
2022-08-05T18:34:43.157Z,18.17
2022-08-05T18:41:51.061Z,17.97
2022-08-05T18:45:07.370Z,17.89
2022-08-05T18:50:45.318Z,17.62
2022-08-05T18:55:48.649Z,17.50
2022-08-05T19:00:51.051Z,17.27
2022-08-05T19:06:12.092Z,17.08
2022-08-05T19:11:14.761Z,17.08
2022-08-05T19:16:25.018Z,16.84
2022-08-05T19:21:34.423Z,16.64
2022-08-05T19:26:43.761Z,16.50
2022-08-05T19:31:57.409Z,16.03
2022-08-05T19:36:59.112Z,16.05
2022-08-05T19:42:06.977Z,15.65
2022-08-05T19:47:10.567Z,15.54
2022-08-05T19:52:30.662Z,15.57
2022-08-05T19:57:49.355Z,15.36
2022-08-05T20:03:05.298Z,15.19
2022-08-05T20:08:10.929Z,15.02
2022-08-05T20:13:12.564Z,14.70
2022-08-05T20:18:33.253Z,14.72
2022-08-05T20:23:40.525Z,14.56
2022-08-05T20:28:56.884Z,14.40
2022-08-05T20:33:58.711Z,14.24
2022-08-05T20:39:00.450Z,13.99
2022-08-05T20:44:17.822Z,13.86
2022-08-05T20:49:24.594Z,13.60
2022-08-05T20:54:43.589Z,13.48
2022-08-05T21:00:20.346Z,13.39
2022-08-05T21:05:53.464Z,13.14
2022-08-05T21:10:58.477Z,12.91
2022-08-05T21:16:00.670Z,13.00
2022-08-05T21:21:03.079Z,12.84
2022-08-05T21:26:08.190Z,12.68
2022-08-05T21:31:14.138Z,12.74
2022-08-05T21:36:27.679Z,12.52
2022-08-05T21:41:33.857Z,12.37
2022-08-05T21:46:36.975Z,12.29
2022-08-05T21:52:21.999Z,12.17
2022-08-05T21:57:31.712Z,12.13
2022-08-05T22:02:22.078Z,12.00
2022-08-05T22:07:39.471Z,11.82
2022-08-05T22:12:50.661Z,11.77
2022-08-05T22:17:59.928Z,11.48
2022-08-05T22:23:21.184Z,11.65
2022-08-05T22:28:25.437Z,11.33
2022-08-05T22:33:58.407Z,11.41
2022-08-05T22:38:50.357Z,11.49
2022-08-05T22:43:52.127Z,11.30
2022-08-05T22:48:53.793Z,11.32
2022-08-05T22:53:55.727Z,11.28
2022-08-05T22:58:58.663Z,11.26
2022-08-05T23:04:01.819Z,11.23
2022-08-05T23:09:57.145Z,11.13
2022-08-05T23:14:52.088Z,10.82
2022-08-05T23:19:59.289Z,10.56
2022-08-05T23:25:00.942Z,10.60
2022-08-05T23:30:02.608Z,10.67
2022-08-05T23:35:10.224Z,10.66
2022-08-05T23:40:12.048Z,10.57
2022-08-05T23:45:15.595Z,10.47
2022-08-05T23:50:20.274Z,10.45
2022-08-05T23:55:22.681Z,10.50
